sensor_id;sensor_type;location;lat;lon;timestamp;P1;durP1;ratioP1;P2;durP2;ratioP2
35506;SDS011;36461;52.018;21.036;2023-03-23T00:04:52;31.80;;;21.60;;
35506;SDS011;36461;52.018;21.036;2023-03-23T00:07:20;34.30;;;21.20;;
35506;SDS011;36461;52.018;21.036;2023-03-23T00:09:49;31.60;;;20.90;;
35506;SDS011;36461;52.018;21.036;2023-03-23T00:12:21;34.10;;;22.20;;
35506;SDS011;36461;52.018;21.036;2023-03-23T00:14:55;35.20;;;22.50;;
35506;SDS011;36461;52.018;21.036;2023-03-23T00:19:49;33.60;;;21.20;;
35506;SDS011;36461;52.018;21.036;2023-03-23T00:22:17;36.60;;;23.00;;
35506;SDS011;36461;52.018;21.036;2023-03-23T00:24:47;31.10;;;21.70;;
35506;SDS011;36461;52.018;21.036;2023-03-23T00:27:17;32.70;;;21.10;;
35506;SDS011;36461;52.018;21.036;2023-03-23T00:29:44;35.10;;;22.10;;
35506;SDS011;36461;52.018;21.036;2023-03-23T00:32:12;32.00;;;22.60;;
35506;SDS011;36461;52.018;21.036;2023-03-23T00:34:41;37.70;;;24.50;;
35506;SDS011;36461;52.018;21.036;2023-03-23T00:37:09;34.20;;;23.00;;
35506;SDS011;36461;52.018;21.036;2023-03-23T00:39:37;33.30;;;22.30;;
35506;SDS011;36461;52.018;21.036;2023-03-23T00:42:05;32.90;;;21.30;;
35506;SDS011;36461;52.018;21.036;2023-03-23T00:44:32;32.30;;;20.50;;
35506;SDS011;36461;52.018;21.036;2023-03-23T00:47:02;32.50;;;20.60;;
35506;SDS011;36461;52.018;21.036;2023-03-23T00:49:31;32.40;;;20.90;;
35506;SDS011;36461;52.018;21.036;2023-03-23T00:52:01;33.10;;;21.00;;
35506;SDS011;36461;52.018;21.036;2023-03-23T00:54:30;34.90;;;21.50;;
35506;SDS011;36461;52.018;21.036;2023-03-23T00:56:57;34.10;;;21.90;;
35506;SDS011;36461;52.018;21.036;2023-03-23T01:01:51;32.70;;;20.30;;
35506;SDS011;36461;52.018;21.036;2023-03-23T01:04:19;34.30;;;21.90;;
35506;SDS011;36461;52.018;21.036;2023-03-23T01:06:48;34.40;;;22.30;;
35506;SDS011;36461;52.018;21.036;2023-03-23T01:09:18;32.90;;;21.20;;
35506;SDS011;36461;52.018;21.036;2023-03-23T01:11:49;32.00;;;20.70;;
35506;SDS011;36461;52.018;21.036;2023-03-23T01:14:18;37.10;;;21.80;;
35506;SDS011;36461;52.018;21.036;2023-03-23T01:16:46;33.20;;;21.30;;
35506;SDS011;36461;52.018;21.036;2023-03-23T01:19:13;32.80;;;19.90;;
35506;SDS011;36461;52.018;21.036;2023-03-23T01:21:42;30.50;;;20.20;;
35506;SDS011;36461;52.018;21.036;2023-03-23T01:24:09;29.50;;;20.70;;
35506;SDS011;36461;52.018;21.036;2023-03-23T01:26:36;28.30;;;18.60;;
35506;SDS011;36461;52.018;21.036;2023-03-23T01:29:03;30.80;;;18.60;;
35506;SDS011;36461;52.018;21.036;2023-03-23T01:31:30;27.90;;;19.30;;
35506;SDS011;36461;52.018;21.036;2023-03-23T01:33:57;30.00;;;18.70;;
35506;SDS011;36461;52.018;21.036;2023-03-23T01:36:26;31.40;;;20.70;;
35506;SDS011;36461;52.018;21.036;2023-03-23T01:39:00;30.50;;;19.30;;
35506;SDS011;36461;52.018;21.036;2023-03-23T01:41:31;29.60;;;19.60;;
35506;SDS011;36461;52.018;21.036;2023-03-23T01:45:09;29.60;;;19.40;;
35506;SDS011;36461;52.018;21.036;2023-03-23T01:47:02;31.50;;;20.50;;
35506;SDS011;36461;52.018;21.036;2023-03-23T01:49:31;31.80;;;20.10;;
35506;SDS011;36461;52.018;21.036;2023-03-23T01:52:11;28.90;;;20.50;;
35506;SDS011;36461;52.018;21.036;2023-03-23T01:54:49;28.20;;;18.50;;
35506;SDS011;36461;52.018;21.036;2023-03-23T01:57:19;27.10;;;18.60;;
35506;SDS011;36461;52.018;21.036;2023-03-23T01:59:50;27.50;;;18.40;;
35506;SDS011;36461;52.018;21.036;2023-03-23T02:02:24;27.60;;;18.60;;
35506;SDS011;36461;52.018;21.036;2023-03-23T02:04:54;28.80;;;19.40;;
35506;SDS011;36461;52.018;21.036;2023-03-23T02:07:24;31.70;;;19.70;;
35506;SDS011;36461;52.018;21.036;2023-03-23T02:09:52;29.20;;;18.60;;
35506;SDS011;36461;52.018;21.036;2023-03-23T02:12:19;30.10;;;19.80;;
35506;SDS011;36461;52.018;21.036;2023-03-23T02:14:47;30.10;;;19.40;;
35506;SDS011;36461;52.018;21.036;2023-03-23T02:20:06;26.70;;;18.30;;
35506;SDS011;36461;52.018;21.036;2023-03-23T02:31:06;30.50;;;18.40;;
35506;SDS011;36461;52.018;21.036;2023-03-23T02:39:37;27.90;;;18.90;;
35506;SDS011;36461;52.018;21.036;2023-03-23T02:42:08;30.00;;;20.00;;
35506;SDS011;36461;52.018;21.036;2023-03-23T02:44:37;29.60;;;19.20;;
35506;SDS011;36461;52.018;21.036;2023-03-23T02:47:09;30.20;;;19.30;;
35506;SDS011;36461;52.018;21.036;2023-03-23T02:49:42;30.50;;;19.50;;
35506;SDS011;36461;52.018;21.036;2023-03-23T02:52:14;29.40;;;18.30;;
35506;SDS011;36461;52.018;21.036;2023-03-23T02:54:47;26.90;;;19.40;;
35506;SDS011;36461;52.018;21.036;2023-03-23T02:57:16;31.60;;;20.70;;
35506;SDS011;36461;52.018;21.036;2023-03-23T02:59:44;29.30;;;20.70;;
35506;SDS011;36461;52.018;21.036;2023-03-23T03:02:12;30.20;;;18.90;;
35506;SDS011;36461;52.018;21.036;2023-03-23T03:04:46;28.70;;;18.80;;
35506;SDS011;36461;52.018;21.036;2023-03-23T03:07:30;29.20;;;19.30;;
35506;SDS011;36461;52.018;21.036;2023-03-23T03:10:21;30.20;;;19.60;;
35506;SDS011;36461;52.018;21.036;2023-03-23T03:18:14;26.40;;;17.50;;
35506;SDS011;36461;52.018;21.036;2023-03-23T03:20:50;29.10;;;17.60;;
35506;SDS011;36461;52.018;21.036;2023-03-23T03:23:23;26.20;;;16.60;;
35506;SDS011;36461;52.018;21.036;2023-03-23T03:25:53;25.30;;;16.70;;
35506;SDS011;36461;52.018;21.036;2023-03-23T03:28:32;25.90;;;17.20;;
35506;SDS011;36461;52.018;21.036;2023-03-23T03:31:01;23.50;;;17.00;;
35506;SDS011;36461;52.018;21.036;2023-03-23T03:33:29;26.20;;;16.90;;
35506;SDS011;36461;52.018;21.036;2023-03-23T03:35:59;25.70;;;17.20;;
35506;SDS011;36461;52.018;21.036;2023-03-23T03:38:29;25.20;;;16.90;;
35506;SDS011;36461;52.018;21.036;2023-03-23T03:40:56;23.40;;;15.70;;
35506;SDS011;36461;52.018;21.036;2023-03-23T03:43:23;24.60;;;16.50;;
35506;SDS011;36461;52.018;21.036;2023-03-23T03:45:51;22.60;;;15.90;;
35506;SDS011;36461;52.018;21.036;2023-03-23T03:48:17;21.80;;;16.40;;
35506;SDS011;36461;52.018;21.036;2023-03-23T03:50:44;22.10;;;14.50;;
35506;SDS011;36461;52.018;21.036;2023-03-23T03:53:12;23.40;;;15.40;;
35506;SDS011;36461;52.018;21.036;2023-03-23T03:55:39;23.90;;;15.20;;
35506;SDS011;36461;52.018;21.036;2023-03-23T03:58:12;20.90;;;13.90;;
35506;SDS011;36461;52.018;21.036;2023-03-23T04:01:05;20.20;;;14.60;;
35506;SDS011;36461;52.018;21.036;2023-03-23T04:03:35;23.80;;;15.40;;
35506;SDS011;36461;52.018;21.036;2023-03-23T04:06:12;23.60;;;15.50;;
35506;SDS011;36461;52.018;21.036;2023-03-23T04:11:08;22.80;;;15.50;;
35506;SDS011;36461;52.018;21.036;2023-03-23T04:13:37;23.50;;;15.30;;
35506;SDS011;36461;52.018;21.036;2023-03-23T04:16:11;23.80;;;15.80;;
35506;SDS011;36461;52.018;21.036;2023-03-23T04:18:38;22.90;;;14.50;;
35506;SDS011;36461;52.018;21.036;2023-03-23T04:21:05;22.00;;;15.00;;
35506;SDS011;36461;52.018;21.036;2023-03-23T04:23:34;25.90;;;15.70;;
35506;SDS011;36461;52.018;21.036;2023-03-23T04:26:03;21.90;;;15.50;;
35506;SDS011;36461;52.018;21.036;2023-03-23T04:28:40;21.90;;;14.80;;
35506;SDS011;36461;52.018;21.036;2023-03-23T04:31:26;21.70;;;14.70;;
35506;SDS011;36461;52.018;21.036;2023-03-23T04:34:04;21.60;;;15.10;;
35506;SDS011;36461;52.018;21.036;2023-03-23T04:36:36;23.30;;;16.00;;
35506;SDS011;36461;52.018;21.036;2023-03-23T04:39:09;24.40;;;15.50;;
35506;SDS011;36461;52.018;21.036;2023-03-23T04:41:37;24.50;;;16.70;;
35506;SDS011;36461;52.018;21.036;2023-03-23T04:44:19;22.60;;;15.80;;
35506;SDS011;36461;52.018;21.036;2023-03-23T04:47:02;24.40;;;15.80;;
35506;SDS011;36461;52.018;21.036;2023-03-23T04:49:32;25.10;;;16.70;;
35506;SDS011;36461;52.018;21.036;2023-03-23T04:52:10;23.10;;;15.20;;
35506;SDS011;36461;52.018;21.036;2023-03-23T04:54:43;23.40;;;16.00;;
35506;SDS011;36461;52.018;21.036;2023-03-23T04:57:11;22.40;;;15.30;;
35506;SDS011;36461;52.018;21.036;2023-03-23T04:59:41;22.70;;;15.50;;
35506;SDS011;36461;52.018;21.036;2023-03-23T05:02:14;21.10;;;14.50;;
35506;SDS011;36461;52.018;21.036;2023-03-23T05:04:46;21.70;;;15.50;;
35506;SDS011;36461;52.018;21.036;2023-03-23T05:07:19;21.90;;;14.90;;
35506;SDS011;36461;52.018;21.036;2023-03-23T05:09:48;21.70;;;14.50;;
35506;SDS011;36461;52.018;21.036;2023-03-23T05:12:17;20.00;;;14.50;;
35506;SDS011;36461;52.018;21.036;2023-03-23T05:15:03;21.60;;;15.10;;
35506;SDS011;36461;52.018;21.036;2023-03-23T05:17:33;23.80;;;15.00;;
35506;SDS011;36461;52.018;21.036;2023-03-23T05:20:02;21.80;;;14.80;;
35506;SDS011;36461;52.018;21.036;2023-03-23T05:22:36;21.30;;;14.50;;
35506;SDS011;36461;52.018;21.036;2023-03-23T05:25:05;21.30;;;14.10;;
35506;SDS011;36461;52.018;21.036;2023-03-23T05:27:37;21.50;;;14.30;;
35506;SDS011;36461;52.018;21.036;2023-03-23T05:30:15;23.40;;;15.10;;
35506;SDS011;36461;52.018;21.036;2023-03-23T05:32:43;20.60;;;15.20;;
35506;SDS011;36461;52.018;21.036;2023-03-23T05:35:44;20.40;;;15.30;;
35506;SDS011;36461;52.018;21.036;2023-03-23T05:38:14;19.20;;;14.10;;
35506;SDS011;36461;52.018;21.036;2023-03-23T05:40:43;22.50;;;14.50;;
35506;SDS011;36461;52.018;21.036;2023-03-23T05:43:19;21.60;;;16.10;;
35506;SDS011;36461;52.018;21.036;2023-03-23T05:46:06;25.10;;;16.00;;
35506;SDS011;36461;52.018;21.036;2023-03-23T05:48:35;23.80;;;16.30;;
35506;SDS011;36461;52.018;21.036;2023-03-23T05:51:03;26.60;;;16.40;;
35506;SDS011;36461;52.018;21.036;2023-03-23T05:53:30;23.60;;;14.60;;
35506;SDS011;36461;52.018;21.036;2023-03-23T05:55:59;22.00;;;14.40;;
35506;SDS011;36461;52.018;21.036;2023-03-23T05:58:45;19.30;;;13.80;;
35506;SDS011;36461;52.018;21.036;2023-03-23T06:03:42;21.40;;;13.10;;
35506;SDS011;36461;52.018;21.036;2023-03-23T06:06:15;18.20;;;12.60;;
35506;SDS011;36461;52.018;21.036;2023-03-23T06:09:06;20.00;;;13.70;;
35506;SDS011;36461;52.018;21.036;2023-03-23T06:11:52;16.00;;;11.60;;
35506;SDS011;36461;52.018;21.036;2023-03-23T06:14:52;17.30;;;12.70;;
35506;SDS011;36461;52.018;21.036;2023-03-23T06:17:24;17.80;;;11.50;;
35506;SDS011;36461;52.018;21.036;2023-03-23T06:19:53;18.70;;;12.10;;
35506;SDS011;36461;52.018;21.036;2023-03-23T06:22:20;18.00;;;11.80;;
35506;SDS011;36461;52.018;21.036;2023-03-23T06:24:56;18.40;;;11.80;;
35506;SDS011;36461;52.018;21.036;2023-03-23T06:27:29;14.20;;;10.60;;
35506;SDS011;36461;52.018;21.036;2023-03-23T06:29:57;17.00;;;11.60;;
35506;SDS011;36461;52.018;21.036;2023-03-23T06:32:25;14.20;;;10.70;;
35506;SDS011;36461;52.018;21.036;2023-03-23T06:34:54;15.70;;;11.10;;
35506;SDS011;36461;52.018;21.036;2023-03-23T06:37:21;14.10;;;10.60;;
35506;SDS011;36461;52.018;21.036;2023-03-23T06:40:08;15.60;;;10.80;;
35506;SDS011;36461;52.018;21.036;2023-03-23T06:42:40;16.10;;;11.70;;
35506;SDS011;36461;52.018;21.036;2023-03-23T06:45:26;17.10;;;11.40;;
35506;SDS011;36461;52.018;21.036;2023-03-23T06:48:05;15.40;;;11.40;;
35506;SDS011;36461;52.018;21.036;2023-03-23T06:50:34;16.50;;;11.40;;
35506;SDS011;36461;52.018;21.036;2023-03-23T06:53:01;16.40;;;11.90;;
35506;SDS011;36461;52.018;21.036;2023-03-23T06:57:55;13.90;;;10.80;;
35506;SDS011;36461;52.018;21.036;2023-03-23T07:00:22;14.80;;;10.50;;
35506;SDS011;36461;52.018;21.036;2023-03-23T07:02:49;17.60;;;11.60;;
35506;SDS011;36461;52.018;21.036;2023-03-23T07:05:16;13.30;;;10.50;;
35506;SDS011;36461;52.018;21.036;2023-03-23T07:07:44;15.90;;;11.30;;
35506;SDS011;36461;52.018;21.036;2023-03-23T07:10:31;16.80;;;11.20;;
35506;SDS011;36461;52.018;21.036;2023-03-23T07:12:59;17.20;;;11.00;;
35506;SDS011;36461;52.018;21.036;2023-03-23T07:15:27;15.80;;;11.00;;
35506;SDS011;36461;52.018;21.036;2023-03-23T07:17:55;16.30;;;10.80;;
35506;SDS011;36461;52.018;21.036;2023-03-23T07:20:31;13.40;;;10.80;;
35506;SDS011;36461;52.018;21.036;2023-03-23T07:22:58;15.60;;;10.80;;
35506;SDS011;36461;52.018;21.036;2023-03-23T07:25:38;13.40;;;9.70;;
35506;SDS011;36461;52.018;21.036;2023-03-23T07:28:06;15.40;;;10.70;;
35506;SDS011;36461;52.018;21.036;2023-03-23T07:30:34;15.50;;;10.90;;
35506;SDS011;36461;52.018;21.036;2023-03-23T07:33:03;14.10;;;10.10;;
35506;SDS011;36461;52.018;21.036;2023-03-23T07:35:32;16.40;;;10.60;;
35506;SDS011;36461;52.018;21.036;2023-03-23T07:38:05;16.20;;;10.70;;
35506;SDS011;36461;52.018;21.036;2023-03-23T07:40:33;13.60;;;9.90;;
35506;SDS011;36461;52.018;21.036;2023-03-23T07:43:05;14.20;;;10.20;;
35506;SDS011;36461;52.018;21.036;2023-03-23T07:45:55;14.80;;;9.80;;
35506;SDS011;36461;52.018;21.036;2023-03-23T07:48:25;15.30;;;9.30;;
35506;SDS011;36461;52.018;21.036;2023-03-23T07:50:53;12.50;;;9.20;;
35506;SDS011;36461;52.018;21.036;2023-03-23T07:53:21;16.20;;;10.10;;
35506;SDS011;36461;52.018;21.036;2023-03-23T07:55:55;13.30;;;9.90;;
35506;SDS011;36461;52.018;21.036;2023-03-23T07:58:41;14.40;;;9.80;;
35506;SDS011;36461;52.018;21.036;2023-03-23T08:03:36;14.40;;;9.30;;
35506;SDS011;36461;52.018;21.036;2023-03-23T08:06:13;15.20;;;9.80;;
35506;SDS011;36461;52.018;21.036;2023-03-23T08:09:00;13.00;;;8.70;;
35506;SDS011;36461;52.018;21.036;2023-03-23T08:12:02;11.60;;;8.40;;
35506;SDS011;36461;52.018;21.036;2023-03-23T08:14:49;10.70;;;7.70;;
35506;SDS011;36461;52.018;21.036;2023-03-23T08:17:29;10.40;;;8.40;;
35506;SDS011;36461;52.018;21.036;2023-03-23T08:20:28;12.30;;;8.50;;
35506;SDS011;36461;52.018;21.036;2023-03-23T08:23:22;9.90;;;8.00;;
35506;SDS011;36461;52.018;21.036;2023-03-23T08:26:08;11.20;;;7.90;;
35506;SDS011;36461;52.018;21.036;2023-03-23T08:28:50;10.30;;;7.20;;
35506;SDS011;36461;52.018;21.036;2023-03-23T08:31:25;12.60;;;7.40;;
35506;SDS011;36461;52.018;21.036;2023-03-23T08:34:08;10.80;;;6.90;;
35506;SDS011;36461;52.018;21.036;2023-03-23T08:36:54;9.50;;;7.00;;
35506;SDS011;36461;52.018;21.036;2023-03-23T08:39:40;9.00;;;7.00;;
35506;SDS011;36461;52.018;21.036;2023-03-23T08:42:18;9.10;;;6.70;;
35506;SDS011;36461;52.018;21.036;2023-03-23T08:45:05;8.90;;;6.70;;
35506;SDS011;36461;52.018;21.036;2023-03-23T08:48:05;10.20;;;6.40;;
35506;SDS011;36461;52.018;21.036;2023-03-23T08:50:52;8.80;;;6.60;;
35506;SDS011;36461;52.018;21.036;2023-03-23T08:53:31;10.30;;;6.90;;
35506;SDS011;36461;52.018;21.036;2023-03-23T08:56:18;11.80;;;7.10;;
35506;SDS011;36461;52.018;21.036;2023-03-23T08:59:03;9.60;;;7.50;;
35506;SDS011;36461;52.018;21.036;2023-03-23T09:01:56;10.50;;;7.30;;
35506;SDS011;36461;52.018;21.036;2023-03-23T09:04:36;12.30;;;8.30;;
35506;SDS011;36461;52.018;21.036;2023-03-23T09:07:12;12.40;;;8.60;;
35506;SDS011;36461;52.018;21.036;2023-03-23T09:09:41;12.20;;;8.20;;
35506;SDS011;36461;52.018;21.036;2023-03-23T09:12:08;8.60;;;7.40;;
35506;SDS011;36461;52.018;21.036;2023-03-23T09:14:36;11.00;;;7.50;;
35506;SDS011;36461;52.018;21.036;2023-03-23T09:17:04;9.30;;;7.60;;
35506;SDS011;36461;52.018;21.036;2023-03-23T09:19:32;10.10;;;6.60;;
35506;SDS011;36461;52.018;21.036;2023-03-23T09:22:00;8.60;;;6.50;;
35506;SDS011;36461;52.018;21.036;2023-03-23T09:24:27;7.90;;;6.50;;
35506;SDS011;36461;52.018;21.036;2023-03-23T09:26:54;9.60;;;6.40;;
35506;SDS011;36461;52.018;21.036;2023-03-23T09:31:48;8.20;;;5.90;;
35506;SDS011;36461;52.018;21.036;2023-03-23T09:34:15;8.70;;;6.10;;
35506;SDS011;36461;52.018;21.036;2023-03-23T09:36:43;10.80;;;6.50;;
35506;SDS011;36461;52.018;21.036;2023-03-23T09:39:13;9.00;;;6.60;;
35506;SDS011;36461;52.018;21.036;2023-03-23T09:44:22;11.10;;;6.90;;
35506;SDS011;36461;52.018;21.036;2023-03-23T09:49:43;10.20;;;7.50;;
35506;SDS011;36461;52.018;21.036;2023-03-23T09:52:18;10.80;;;7.40;;
35506;SDS011;36461;52.018;21.036;2023-03-23T09:54:52;10.90;;;7.80;;
35506;SDS011;36461;52.018;21.036;2023-03-23T10:02:55;11.70;;;8.40;;
35506;SDS011;36461;52.018;21.036;2023-03-23T10:05:36;11.40;;;8.50;;
35506;SDS011;36461;52.018;21.036;2023-03-23T10:08:11;11.00;;;8.30;;
35506;SDS011;36461;52.018;21.036;2023-03-23T10:16:30;13.70;;;8.80;;
35506;SDS011;36461;52.018;21.036;2023-03-23T10:19:11;9.90;;;8.20;;
35506;SDS011;36461;52.018;21.036;2023-03-23T10:21:47;9.90;;;8.10;;
35506;SDS011;36461;52.018;21.036;2023-03-23T10:24:20;11.30;;;7.70;;
35506;SDS011;36461;52.018;21.036;2023-03-23T10:27:03;10.90;;;6.90;;
35506;SDS011;36461;52.018;21.036;2023-03-23T10:29:42;10.80;;;7.60;;
35506;SDS011;36461;52.018;21.036;2023-03-23T10:32:18;9.00;;;6.70;;
35506;SDS011;36461;52.018;21.036;2023-03-23T10:34:50;11.50;;;7.50;;
35506;SDS011;36461;52.018;21.036;2023-03-23T10:37:27;9.50;;;7.80;;
35506;SDS011;36461;52.018;21.036;2023-03-23T10:40:00;8.70;;;6.60;;
35506;SDS011;36461;52.018;21.036;2023-03-23T10:42:30;8.00;;;7.10;;
35506;SDS011;36461;52.018;21.036;2023-03-23T10:45:00;7.70;;;6.30;;
35506;SDS011;36461;52.018;21.036;2023-03-23T10:47:43;9.10;;;6.90;;
35506;SDS011;36461;52.018;21.036;2023-03-23T10:50:17;8.70;;;6.80;;
35506;SDS011;36461;52.018;21.036;2023-03-23T10:52:50;9.90;;;6.50;;
35506;SDS011;36461;52.018;21.036;2023-03-23T10:55:20;9.90;;;7.20;;
35506;SDS011;36461;52.018;21.036;2023-03-23T10:58:00;9.20;;;7.40;;
35506;SDS011;36461;52.018;21.036;2023-03-23T11:00:29;9.90;;;7.40;;
35506;SDS011;36461;52.018;21.036;2023-03-23T11:02:59;7.90;;;6.40;;
35506;SDS011;36461;52.018;21.036;2023-03-23T11:05:36;11.50;;;7.30;;
35506;SDS011;36461;52.018;21.036;2023-03-23T11:08:14;8.20;;;5.80;;
35506;SDS011;36461;52.018;21.036;2023-03-23T11:10:57;6.40;;;5.60;;
35506;SDS011;36461;52.018;21.036;2023-03-23T11:13:30;7.80;;;5.60;;
35506;SDS011;36461;52.018;21.036;2023-03-23T11:15:59;8.30;;;5.50;;
35506;SDS011;36461;52.018;21.036;2023-03-23T11:18:34;8.70;;;5.50;;
35506;SDS011;36461;52.018;21.036;2023-03-23T11:21:03;6.60;;;5.20;;
35506;SDS011;36461;52.018;21.036;2023-03-23T11:23:36;5.80;;;4.60;;
35506;SDS011;36461;52.018;21.036;2023-03-23T11:26:13;5.40;;;3.80;;
35506;SDS011;36461;52.018;21.036;2023-03-23T11:34:20;4.20;;;2.50;;
35506;SDS011;36461;52.018;21.036;2023-03-23T11:36:53;6.10;;;2.50;;
35506;SDS011;36461;52.018;21.036;2023-03-23T11:39:29;3.80;;;2.80;;
35506;SDS011;36461;52.018;21.036;2023-03-23T11:41:58;3.20;;;2.40;;
35506;SDS011;36461;52.018;21.036;2023-03-23T11:44:34;3.30;;;2.30;;
35506;SDS011;36461;52.018;21.036;2023-03-23T11:47:09;3.50;;;2.30;;
35506;SDS011;36461;52.018;21.036;2023-03-23T11:50:04;2.80;;;2.20;;
35506;SDS011;36461;52.018;21.036;2023-03-23T11:55:16;4.00;;;2.90;;
35506;SDS011;36461;52.018;21.036;2023-03-23T11:57:47;5.30;;;3.30;;
35506;SDS011;36461;52.018;21.036;2023-03-23T12:00:21;5.00;;;3.20;;
35506;SDS011;36461;52.018;21.036;2023-03-23T12:17:11;6.70;;;3.90;;
35506;SDS011;36461;52.018;21.036;2023-03-23T12:19:42;5.40;;;4.00;;
35506;SDS011;36461;52.018;21.036;2023-03-23T12:25:30;7.20;;;4.40;;
35506;SDS011;36461;52.018;21.036;2023-03-23T12:28:22;6.40;;;4.00;;
35506;SDS011;36461;52.018;21.036;2023-03-23T12:47:40;5.00;;;3.40;;
35506;SDS011;36461;52.018;21.036;2023-03-23T12:50:15;5.70;;;4.20;;
35506;SDS011;36461;52.018;21.036;2023-03-23T12:55:23;6.40;;;4.00;;
35506;SDS011;36461;52.018;21.036;2023-03-23T12:58:12;6.90;;;4.00;;
35506;SDS011;36461;52.018;21.036;2023-03-23T13:03:42;4.90;;;4.00;;
35506;SDS011;36461;52.018;21.036;2023-03-23T13:11:45;9.20;;;4.00;;
35506;SDS011;36461;52.018;21.036;2023-03-23T13:23:14;5.50;;;3.90;;
35506;SDS011;36461;52.018;21.036;2023-03-23T13:25:54;7.80;;;4.20;;
35506;SDS011;36461;52.018;21.036;2023-03-23T13:28:59;4.30;;;3.80;;
35506;SDS011;36461;52.018;21.036;2023-03-23T13:31:31;5.80;;;4.10;;
35506;SDS011;36461;52.018;21.036;2023-03-23T13:36:33;5.80;;;4.00;;
35506;SDS011;36461;52.018;21.036;2023-03-23T13:39:05;7.90;;;4.30;;
35506;SDS011;36461;52.018;21.036;2023-03-23T13:41:46;4.20;;;3.40;;
35506;SDS011;36461;52.018;21.036;2023-03-23T13:44:21;4.70;;;3.40;;
35506;SDS011;36461;52.018;21.036;2023-03-23T13:46:55;5.00;;;3.90;;
35506;SDS011;36461;52.018;21.036;2023-03-23T13:49:24;5.20;;;3.40;;
35506;SDS011;36461;52.018;21.036;2023-03-23T13:52:00;3.80;;;3.00;;
35506;SDS011;36461;52.018;21.036;2023-03-23T13:54:46;3.50;;;2.40;;
35506;SDS011;36461;52.018;21.036;2023-03-23T13:57:32;4.50;;;3.40;;
35506;SDS011;36461;52.018;21.036;2023-03-23T14:00:25;3.90;;;2.40;;
35506;SDS011;36461;52.018;21.036;2023-03-23T14:03:03;6.70;;;3.20;;
35506;SDS011;36461;52.018;21.036;2023-03-23T14:10:56;6.10;;;2.90;;
35506;SDS011;36461;52.018;21.036;2023-03-23T14:13:30;3.50;;;2.70;;
35506;SDS011;36461;52.018;21.036;2023-03-23T14:16:14;5.80;;;2.90;;
35506;SDS011;36461;52.018;21.036;2023-03-23T14:18:57;5.10;;;3.40;;
35506;SDS011;36461;52.018;21.036;2023-03-23T14:24:11;4.90;;;2.90;;
35506;SDS011;36461;52.018;21.036;2023-03-23T14:26:41;4.60;;;2.50;;
35506;SDS011;36461;52.018;21.036;2023-03-23T14:29:10;6.30;;;4.90;;
35506;SDS011;36461;52.018;21.036;2023-03-23T14:31:39;4.10;;;2.80;;
35506;SDS011;36461;52.018;21.036;2023-03-23T14:34:14;3.20;;;2.90;;
35506;SDS011;36461;52.018;21.036;2023-03-23T14:36:47;5.00;;;3.20;;
35506;SDS011;36461;52.018;21.036;2023-03-23T14:41:54;4.60;;;3.00;;
35506;SDS011;36461;52.018;21.036;2023-03-23T14:44:27;5.50;;;2.80;;
35506;SDS011;36461;52.018;21.036;2023-03-23T14:46:58;6.50;;;3.30;;
35506;SDS011;36461;52.018;21.036;2023-03-23T14:49:34;4.30;;;2.60;;
35506;SDS011;36461;52.018;21.036;2023-03-23T14:52:10;3.60;;;3.00;;
35506;SDS011;36461;52.018;21.036;2023-03-23T14:54:38;6.00;;;3.50;;
35506;SDS011;36461;52.018;21.036;2023-03-23T14:57:29;4.70;;;3.30;;
35506;SDS011;36461;52.018;21.036;2023-03-23T14:59:56;7.60;;;3.90;;
35506;SDS011;36461;52.018;21.036;2023-03-23T15:02:25;4.20;;;3.70;;
35506;SDS011;36461;52.018;21.036;2023-03-23T15:04:56;5.50;;;3.80;;
35506;SDS011;36461;52.018;21.036;2023-03-23T15:07:30;6.70;;;3.50;;
35506;SDS011;36461;52.018;21.036;2023-03-23T15:10:01;4.30;;;3.20;;
35506;SDS011;36461;52.018;21.036;2023-03-23T15:12:32;7.20;;;3.50;;
35506;SDS011;36461;52.018;21.036;2023-03-23T15:15:02;7.00;;;3.60;;
35506;SDS011;36461;52.018;21.036;2023-03-23T15:17:34;5.70;;;3.80;;
35506;SDS011;36461;52.018;21.036;2023-03-23T15:20:11;4.70;;;3.10;;
35506;SDS011;36461;52.018;21.036;2023-03-23T15:22:46;4.60;;;3.20;;
35506;SDS011;36461;52.018;21.036;2023-03-23T15:25:18;4.00;;;3.00;;
35506;SDS011;36461;52.018;21.036;2023-03-23T15:27:52;5.20;;;3.60;;
35506;SDS011;36461;52.018;21.036;2023-03-23T15:35:32;5.80;;;3.70;;
35506;SDS011;36461;52.018;21.036;2023-03-23T15:38:02;4.80;;;3.70;;
35506;SDS011;36461;52.018;21.036;2023-03-23T15:40:35;8.40;;;5.10;;
35506;SDS011;36461;52.018;21.036;2023-03-23T15:43:13;5.20;;;4.10;;
35506;SDS011;36461;52.018;21.036;2023-03-23T15:48:54;6.20;;;3.80;;
35506;SDS011;36461;52.018;21.036;2023-03-23T15:51:28;7.10;;;3.50;;
35506;SDS011;36461;52.018;21.036;2023-03-23T15:53:57;5.60;;;3.40;;
35506;SDS011;36461;52.018;21.036;2023-03-23T15:56:24;4.50;;;3.30;;
35506;SDS011;36461;52.018;21.036;2023-03-23T15:58:52;6.60;;;3.70;;
35506;SDS011;36461;52.018;21.036;2023-03-23T16:01:25;5.50;;;3.60;;
35506;SDS011;36461;52.018;21.036;2023-03-23T16:04:04;5.80;;;4.20;;
35506;SDS011;36461;52.018;21.036;2023-03-23T16:06:35;6.80;;;4.30;;
35506;SDS011;36461;52.018;21.036;2023-03-23T16:09:05;7.30;;;4.80;;
35506;SDS011;36461;52.018;21.036;2023-03-23T16:11:34;9.40;;;4.60;;
35506;SDS011;36461;52.018;21.036;2023-03-23T16:14:02;6.20;;;4.30;;
35506;SDS011;36461;52.018;21.036;2023-03-23T16:16:33;6.90;;;4.40;;
35506;SDS011;36461;52.018;21.036;2023-03-23T16:19:05;8.70;;;5.00;;
35506;SDS011;36461;52.018;21.036;2023-03-23T16:21:33;6.90;;;4.90;;
35506;SDS011;36461;52.018;21.036;2023-03-23T16:24:01;6.50;;;4.30;;
35506;SDS011;36461;52.018;21.036;2023-03-23T16:26:30;6.20;;;3.90;;
35506;SDS011;36461;52.018;21.036;2023-03-23T16:28:58;7.40;;;4.30;;
35506;SDS011;36461;52.018;21.036;2023-03-23T16:31:39;6.50;;;4.60;;
35506;SDS011;36461;52.018;21.036;2023-03-23T16:34:07;12.00;;;8.10;;
35506;SDS011;36461;52.018;21.036;2023-03-23T16:36:36;7.10;;;4.70;;
35506;SDS011;36461;52.018;21.036;2023-03-23T16:39:04;6.70;;;4.50;;
35506;SDS011;36461;52.018;21.036;2023-03-23T16:41:33;8.00;;;4.10;;
35506;SDS011;36461;52.018;21.036;2023-03-23T16:44:01;5.30;;;3.70;;
35506;SDS011;36461;52.018;21.036;2023-03-23T16:46:29;5.60;;;4.00;;
35506;SDS011;36461;52.018;21.036;2023-03-23T16:48:57;6.40;;;4.00;;
35506;SDS011;36461;52.018;21.036;2023-03-23T16:51:25;6.00;;;3.80;;
35506;SDS011;36461;52.018;21.036;2023-03-23T16:53:53;6.40;;;3.90;;
35506;SDS011;36461;52.018;21.036;2023-03-23T16:56:21;6.90;;;4.20;;
35506;SDS011;36461;52.018;21.036;2023-03-23T16:58:49;8.40;;;4.00;;
35506;SDS011;36461;52.018;21.036;2023-03-23T17:01:17;14.80;;;11.00;;
35506;SDS011;36461;52.018;21.036;2023-03-23T17:03:46;8.70;;;6.10;;
35506;SDS011;36461;52.018;21.036;2023-03-23T17:06:14;12.20;;;8.60;;
35506;SDS011;36461;52.018;21.036;2023-03-23T17:08:43;9.70;;;6.30;;
35506;SDS011;36461;52.018;21.036;2023-03-23T17:11:11;9.90;;;4.90;;
35506;SDS011;36461;52.018;21.036;2023-03-23T17:13:41;7.80;;;4.00;;
35506;SDS011;36461;52.018;21.036;2023-03-23T17:16:09;5.50;;;3.80;;
35506;SDS011;36461;52.018;21.036;2023-03-23T17:18:38;7.60;;;4.70;;
35506;SDS011;36461;52.018;21.036;2023-03-23T17:21:06;7.40;;;4.70;;